createdAt,value
2017-01-05T00:00:10.827Z,48.34
2017-01-05T00:02:23.426Z,48.34
2017-01-05T00:04:36.732Z,48.34
2017-01-05T00:06:51.798Z,48.33
2017-01-05T00:09:06.736Z,48.34
2017-01-05T00:11:14.819Z,48.34
2017-01-05T00:13:22.893Z,48.34
2017-01-05T00:15:35.309Z,48.35
2017-01-05T00:17:49.824Z,48.36
2017-01-05T00:20:04.240Z,48.34
2017-01-05T00:22:17.974Z,48.32
2017-01-05T00:24:30.861Z,48.33
2017-01-05T00:26:38.528Z,48.32
2017-01-05T00:28:51.910Z,48.31
2017-01-05T00:31:04.654Z,48.32
2017-01-05T00:33:12.231Z,48.33
2017-01-05T00:35:24.982Z,48.33
2017-01-05T00:37:39.356Z,48.33
2017-01-05T00:39:52.133Z,48.33
2017-01-05T00:42:04.795Z,48.34
2017-01-05T00:44:17.297Z,48.36
2017-01-05T00:46:29.715Z,48.34
2017-01-05T00:48:42.031Z,48.34
2017-01-05T00:50:54.631Z,48.34
2017-01-05T00:53:06.873Z,48.34
2017-01-05T00:55:14.306Z,48.33
2017-01-05T00:57:26.673Z,48.33
2017-01-05T00:59:34.020Z,48.34
2017-01-05T01:01:46.877Z,48.3
2017-01-05T01:03:54.708Z,48.29
2017-01-05T01:06:02.431Z,48.29
2017-01-05T01:08:09.760Z,48.28
2017-01-05T01:10:22.340Z,48.3
2017-01-05T01:12:29.627Z,48.33
2017-01-05T01:14:42.013Z,48.32
2017-01-05T01:16:54.619Z,48.31
2017-01-05T01:19:07.137Z,48.33
2017-01-05T01:21:19.700Z,48.31
2017-01-05T01:23:27.211Z,48.31
2017-01-05T01:25:39.586Z,48.29
2017-01-05T01:27:51.887Z,48.28
2017-01-05T01:30:04.528Z,48.27
2017-01-05T01:32:16.896Z,48.26
2017-01-05T01:34:24.321Z,48.27
2017-01-05T01:36:36.800Z,48.28
2017-01-05T01:38:49.607Z,48.26
2017-01-05T01:41:01.882Z,48.24
2017-01-05T01:43:14.133Z,48.24
2017-01-05T01:45:26.490Z,48.26
2017-01-05T01:47:39.019Z,48.24
2017-01-05T01:49:51.347Z,48.24
2017-01-05T01:52:04.706Z,48.24
2017-01-05T01:54:16.986Z,48.21
2017-01-05T01:56:28.413Z,48.19
2017-01-05T01:58:44.420Z,48.18
2017-01-05T02:00:57.918Z,48.15
2017-01-05T02:03:10.295Z,48.12
2017-01-05T02:05:22.757Z,48.15
2017-01-05T02:07:36.255Z,48.14
2017-01-05T02:09:43.573Z,48.13
2017-01-05T02:11:56.123Z,48.13
2017-01-05T02:14:09.060Z,48.11
2017-01-05T02:16:21.576Z,48.12
2017-01-05T02:18:33.948Z,48.14
2017-01-05T02:20:46.761Z,48.16
2017-01-05T02:22:59.130Z,48.17
2017-01-05T02:25:12.844Z,48.15
2017-01-05T02:27:25.173Z,48.11
2017-01-05T02:29:44.610Z,48.07
2017-01-05T02:32:03.341Z,48.07
2017-01-05T02:34:16.063Z,48.08
2017-01-05T02:36:28.650Z,48.06
2017-01-05T02:38:41.180Z,48.05
2017-01-05T02:40:53.907Z,48.07
2017-01-05T02:43:06.197Z,48.07
2017-01-05T02:45:18.755Z,48.07
2017-01-05T02:47:31.420Z,48.04
2017-01-05T02:49:44.229Z,48.04
2017-01-05T02:51:56.832Z,48
2017-01-05T02:54:09.473Z,47.95
2017-01-05T02:56:21.853Z,47.92
2017-01-05T02:58:34.224Z,47.9
2017-01-05T03:00:46.819Z,47.88
2017-01-05T03:02:54.606Z,47.89
2017-01-05T03:05:01.925Z,47.9
2017-01-05T03:07:14.153Z,47.89
2017-01-05T03:09:26.483Z,47.84
2017-01-05T03:11:38.738Z,47.79
2017-01-05T03:13:51.058Z,47.78
2017-01-05T03:16:03.338Z,47.77
2017-01-05T03:18:16.529Z,47.76
2017-01-05T03:20:29.315Z,47.76
2017-01-05T03:22:37.970Z,47.77
2017-01-05T03:24:40.606Z,47.82
2017-01-05T03:26:53.028Z,47.91
2017-01-05T03:29:05.155Z,47.95
2017-01-05T03:31:18.646Z,48.02
2017-01-05T03:33:30.971Z,48.11
2017-01-05T03:35:43.588Z,48.2
2017-01-05T03:37:55.751Z,48.23
2017-01-05T03:40:09.101Z,48.24
2017-01-05T03:42:11.595Z,48.26
2017-01-05T03:44:23.967Z,48.29
2017-01-05T03:46:31.475Z,48.31
2017-01-05T03:48:43.806Z,48.37
2017-01-05T03:50:56.005Z,48.44
2017-01-05T03:53:08.319Z,48.44
2017-01-05T03:55:20.478Z,48.4
2017-01-05T03:57:33.275Z,48.36
2017-01-05T03:59:45.944Z,48.31
2017-01-05T04:01:58.184Z,48.25
2017-01-05T04:04:10.396Z,48.2
2017-01-05T04:06:22.879Z,48.21
2017-01-05T04:08:30.128Z,48.21
2017-01-05T04:10:42.377Z,48.22
2017-01-05T04:12:55.793Z,48.23
2017-01-05T04:15:08.140Z,48.26
2017-01-05T04:17:15.424Z,48.24
2017-01-05T04:19:27.815Z,48.2
2017-01-05T04:21:39.999Z,48.12
2017-01-05T04:23:47.230Z,48.06
2017-01-05T04:25:54.712Z,48.05
2017-01-05T04:28:06.975Z,48.06
2017-01-05T04:30:19.535Z,48.09
2017-01-05T04:32:32.444Z,48.12
2017-01-05T04:34:45.088Z,48.14
2017-01-05T04:36:57.375Z,48.18
2017-01-05T04:39:09.531Z,48.2
2017-01-05T04:41:21.823Z,48.2
2017-01-05T04:43:34.033Z,48.2
2017-01-05T04:45:46.543Z,48.23
2017-01-05T04:47:58.885Z,48.23
2017-01-05T04:50:06.161Z,48.23
2017-01-05T04:52:18.601Z,48.22
2017-01-05T04:54:30.829Z,48.23
2017-01-05T04:56:38.206Z,48.24
2017-01-05T04:58:50.671Z,48.26
2017-01-05T05:01:03.129Z,48.26
2017-01-05T05:03:15.602Z,48.24
2017-01-05T05:05:28.127Z,48.23
2017-01-05T05:07:41.082Z,48.24
2017-01-05T05:09:53.408Z,48.23
2017-01-05T05:12:00.819Z,48.22
2017-01-05T05:14:13.407Z,48.22
2017-01-05T05:16:25.663Z,48.23
2017-01-05T05:18:38.021Z,48.23
2017-01-05T05:20:50.197Z,48.22
2017-01-05T05:23:02.365Z,48.24
2017-01-05T05:25:14.695Z,48.24
2017-01-05T05:27:27.022Z,48.25
2017-01-05T05:29:34.159Z,48.27
2017-01-05T05:31:46.453Z,48.26
2017-01-05T05:33:58.832Z,48.24
2017-01-05T05:36:07.407Z,48.2
2017-01-05T05:38:19.811Z,48.15
2017-01-05T05:40:32.215Z,48.1
2017-01-05T05:42:40.137Z,48.11
2017-01-05T05:44:53.365Z,48.13
2017-01-05T05:47:05.904Z,48.15
2017-01-05T05:49:19.257Z,48.16
2017-01-05T05:51:31.544Z,48.19
2017-01-05T05:53:43.839Z,48.17
2017-01-05T05:55:46.223Z,48.15
2017-01-05T05:57:48.458Z,48.13
2017-01-05T06:00:00.828Z,48.12
2017-01-05T06:02:13.090Z,48.07
2017-01-05T06:04:25.593Z,48.04
2017-01-05T06:06:37.944Z,48.02
2017-01-05T06:08:45.599Z,47.99
2017-01-05T06:10:53.091Z,47.96
2017-01-05T06:13:05.362Z,47.96
2017-01-05T06:15:18.092Z,47.93
2017-01-05T06:17:20.454Z,47.93
2017-01-05T06:19:28.140Z,47.93
2017-01-05T06:21:40.816Z,47.95
2017-01-05T06:23:48.173Z,47.97
2017-01-05T06:25:51.670Z,48
2017-01-05T06:30:16.509Z,48.13
2017-01-05T06:32:28.806Z,48.12
2017-01-05T06:34:40.997Z,48.07
2017-01-05T06:36:53.360Z,48.01
2017-01-05T06:39:05.770Z,47.99
2017-01-05T06:41:29.310Z,48.02
2017-01-05T06:43:41.830Z,48.04
2017-01-05T06:46:03.569Z,48.04
2017-01-05T06:48:41.609Z,48.01
2017-01-05T06:50:53.853Z,47.98
2017-01-05T06:53:01.632Z,47.99
2017-01-05T06:55:09.239Z,48
2017-01-05T06:57:21.740Z,48.01
2017-01-05T06:59:34.140Z,48.03
2017-01-05T07:01:46.440Z,48.05
2017-01-05T07:03:58.875Z,48.06
2017-01-05T07:06:11.406Z,48.08
2017-01-05T07:08:23.920Z,48.11
2017-01-05T07:10:36.369Z,48.13
2017-01-05T07:12:49.749Z,48.16
2017-01-05T07:15:02.231Z,48.15
2017-01-05T07:17:14.545Z,48.16
2017-01-05T07:19:26.872Z,48.15
2017-01-05T07:21:34.232Z,48.14
2017-01-05T07:23:46.578Z,48.17
2017-01-05T07:25:58.947Z,48.15
2017-01-05T07:28:11.265Z,48.1
2017-01-05T07:30:23.591Z,48.06
2017-01-05T07:32:36.055Z,48.06
2017-01-05T07:34:48.440Z,48.05
2017-01-05T07:36:56.029Z,48.06
2017-01-05T07:39:03.661Z,48.07
2017-01-05T07:41:10.974Z,48.08
2017-01-05T07:43:20.438Z,48.09
2017-01-05T07:45:32.835Z,48.1
2017-01-05T07:47:46.863Z,48.07
2017-01-05T07:49:59.192Z,48
2017-01-05T07:52:11.370Z,47.93
2017-01-05T07:54:23.533Z,47.87
2017-01-05T07:56:30.822Z,47.8
2017-01-05T07:58:43.083Z,47.56
2017-01-05T08:00:56.248Z,47.34
2017-01-05T08:03:08.427Z,47.32
2017-01-05T08:05:20.793Z,47.31
2017-01-05T08:07:33.226Z,47.34
2017-01-05T08:09:40.520Z,47.36
2017-01-05T08:11:53.101Z,47.38
2017-01-05T08:14:00.399Z,47.41
2017-01-05T08:16:12.519Z,47.39
2017-01-05T08:18:24.983Z,47.34
2017-01-05T08:20:37.115Z,47.25
2017-01-05T08:22:44.386Z,47.13
2017-01-05T08:24:56.969Z,47.03
2017-01-05T08:27:07.822Z,46.97
2017-01-05T08:29:15.015Z,46.91
2017-01-05T08:31:22.290Z,46.92
2017-01-05T08:33:29.536Z,46.95
2017-01-05T08:35:37.026Z,46.95
2017-01-05T08:37:44.357Z,47
2017-01-05T08:39:56.643Z,46.97
2017-01-05T08:42:08.792Z,46.9
2017-01-05T08:44:20.974Z,46.73
2017-01-05T08:46:33.408Z,46.6
2017-01-05T08:48:49.256Z,46.53
2017-01-05T08:50:58.378Z,46.63
2017-01-05T08:53:10.790Z,46.75
2017-01-05T08:55:13.001Z,46.86
2017-01-05T08:57:25.452Z,46.9
2017-01-05T08:59:32.910Z,46.81
2017-01-05T09:01:45.363Z,46.71
2017-01-05T09:03:57.653Z,46.63
2017-01-05T09:06:36.121Z,46.59
2017-01-05T09:09:01.366Z,46.66
2017-01-05T09:11:13.747Z,46.68
2017-01-05T09:13:26.116Z,46.7
2017-01-05T09:15:38.346Z,46.72
2017-01-05T09:17:50.632Z,46.66
2017-01-05T09:20:03.108Z,46.6
2017-01-05T09:22:10.492Z,46.51
2017-01-05T09:24:23.011Z,46.52
2017-01-05T09:26:35.396Z,46.58
2017-01-05T09:28:47.682Z,46.52
2017-01-05T09:31:00.143Z,46.33
2017-01-05T09:33:12.501Z,46.25
2017-01-05T09:35:24.811Z,46.23
2017-01-05T09:37:36.988Z,46.14
2017-01-05T09:39:49.549Z,46.1
2017-01-05T09:42:01.783Z,45.95
2017-01-05T09:44:14.137Z,45.79
2017-01-05T09:46:26.615Z,45.68
2017-01-05T09:48:38.870Z,45.48
2017-01-05T09:50:51.220Z,45.35
2017-01-05T09:52:53.568Z,45.31
2017-01-05T09:55:00.848Z,45.32
2017-01-05T09:57:13.294Z,45.31
2017-01-05T09:59:25.766Z,45.3
2017-01-05T10:01:38.333Z,45.41
2017-01-05T10:03:50.884Z,45.45
2017-01-05T10:06:03.100Z,45.5
2017-01-05T10:08:15.575Z,45.52
2017-01-05T10:10:27.951Z,45.59
2017-01-05T10:12:35.185Z,45.53
2017-01-05T10:14:47.604Z,45.42
2017-01-05T10:16:59.959Z,45.22
2017-01-05T10:19:07.378Z,45.02
2017-01-05T10:21:19.838Z,44.83
2017-01-05T10:23:32.219Z,44.7
2017-01-05T10:25:44.626Z,44.52
2017-01-05T10:27:52.031Z,44.4
2017-01-05T10:30:04.369Z,44.26
2017-01-05T10:32:16.762Z,44.32
2017-01-05T10:34:29.074Z,44.34
2017-01-05T10:36:41.480Z,44.4
2017-01-05T10:38:53.836Z,44.4
2017-01-05T10:41:06.195Z,44.15
2017-01-05T10:43:18.479Z,43.92
2017-01-05T10:45:30.691Z,43.81
2017-01-05T10:47:42.985Z,43.63
2017-01-05T10:49:55.396Z,43.55
2017-01-05T10:52:07.738Z,43.89
2017-01-05T10:54:15.102Z,44.25
2017-01-05T10:56:27.456Z,44.21
2017-01-05T10:58:39.703Z,44.07
2017-01-05T11:00:52.238Z,44.02
2017-01-05T11:03:04.784Z,44.11
2017-01-05T11:05:17.072Z,44.18
2017-01-05T11:07:29.249Z,44.06
2017-01-05T11:09:41.538Z,43.4
2017-01-05T11:11:53.811Z,42.65
2017-01-05T11:14:06.068Z,42.23
2017-01-05T11:16:11.772Z,41.82
2017-01-05T11:18:24.091Z,41.92
2017-01-05T11:20:36.297Z,41.85
2017-01-05T11:22:43.750Z,41.67
2017-01-05T11:25:03.636Z,41.45
2017-01-05T11:27:25.969Z,41.23
2017-01-05T11:29:38.333Z,41.1
2017-01-05T11:32:05.535Z,41.17
2017-01-05T11:34:32.295Z,41.43
2017-01-05T11:36:51.377Z,41.81
2017-01-05T11:39:04.810Z,42.29
2017-01-05T11:41:25.888Z,42.73
2017-01-05T11:43:49.423Z,43
2017-01-05T11:46:16.410Z,43.1
2017-01-05T11:48:44.882Z,42.88
2017-01-05T11:51:16.669Z,42.63
2017-01-05T11:53:49.700Z,42.44
2017-01-05T11:56:14.027Z,42.45
2017-01-05T11:58:46.310Z,42.5
2017-01-05T12:01:32.970Z,42.55
2017-01-05T12:04:16.036Z,42.64
2017-01-05T12:07:10.750Z,42.68
2017-01-05T12:10:03.671Z,43.11
2017-01-05T12:12:56.253Z,43.22
2017-01-05T12:15:51.042Z,43.32
2017-01-05T12:18:18.746Z,43.67
2017-01-05T12:20:50.142Z,43.49
2017-01-05T12:23:28.857Z,43.13
2017-01-05T12:26:00.207Z,43.75
2017-01-05T12:28:32.248Z,44.37
2017-01-05T12:31:08.187Z,44.65
2017-01-05T12:33:38.288Z,44.72
2017-01-05T12:36:15.181Z,44.74
2017-01-05T12:38:49.219Z,44.66
2017-01-05T12:41:21.654Z,44.53
2017-01-05T12:43:47.528Z,44.22
2017-01-05T12:46:14.825Z,43.99
2017-01-05T12:48:49.671Z,44.02
2017-01-05T12:51:14.092Z,44.13
2017-01-05T12:53:36.567Z,44.14
2017-01-05T12:56:01.079Z,44.18
2017-01-05T12:58:26.454Z,44.33
2017-01-05T13:00:57.174Z,44.42
2017-01-05T13:03:28.569Z,44.68
2017-01-05T13:05:56.085Z,44.72
2017-01-05T13:08:21.693Z,44.65
2017-01-05T13:10:54.614Z,44.31
2017-01-05T13:13:20.223Z,44.11
2017-01-05T13:15:57.238Z,44.11
2017-01-05T13:18:30.111Z,44.3
2017-01-05T13:21:05.349Z,44.58
2017-01-05T13:23:41.880Z,44.89
2017-01-05T13:25:54.483Z,44.88
2017-01-05T13:28:08.511Z,44.81
2017-01-05T13:30:20.971Z,44.89
2017-01-05T13:32:33.275Z,44.95
2017-01-05T13:34:43.922Z,45.15
2017-01-05T13:36:51.426Z,45.31
2017-01-05T13:38:58.619Z,45.41
2017-01-05T13:41:10.860Z,45.44
2017-01-05T13:43:13.264Z,45.31
2017-01-05T13:45:20.452Z,45.06
2017-01-05T13:47:27.853Z,44.93
2017-01-05T13:49:40.144Z,44.7
2017-01-05T13:51:47.644Z,44.7
2017-01-05T13:53:59.966Z,44.71
2017-01-05T13:56:12.573Z,45.02
2017-01-05T13:58:26.363Z,45.4
2017-01-05T14:00:38.746Z,45.66
2017-01-05T14:02:46.090Z,45.73
2017-01-05T14:04:58.331Z,45.83
2017-01-05T14:07:05.575Z,46
2017-01-05T14:09:17.926Z,46.08
2017-01-05T14:11:30.357Z,46.03
2017-01-05T14:13:32.849Z,46.13
2017-01-05T14:15:45.203Z,46.22
2017-01-05T14:17:57.661Z,46.38
2017-01-05T14:20:05.232Z,46.49
2017-01-05T14:22:17.441Z,46.62
2017-01-05T14:24:29.610Z,46.84
2017-01-05T14:26:41.851Z,46.96
2017-01-05T14:28:54.055Z,47.15
2017-01-05T14:31:01.667Z,47.36
2017-01-05T14:33:14.182Z,47.54
2017-01-05T14:35:21.609Z,47.62
2017-01-05T14:37:33.850Z,47.65
2017-01-05T14:39:41.265Z,47.65
2017-01-05T14:41:53.641Z,47.72
2017-01-05T14:44:06.117Z,47.76
2017-01-05T14:46:18.416Z,47.79
2017-01-05T14:48:30.799Z,47.7
2017-01-05T14:50:43.307Z,47.65
2017-01-05T14:52:55.576Z,47.55
2017-01-05T14:55:06.271Z,47.54
2017-01-05T14:57:18.798Z,47.76
2017-01-05T14:59:31.158Z,47.83
2017-01-05T15:01:43.609Z,47.87
2017-01-05T15:03:55.871Z,47.94
2017-01-05T15:06:03.182Z,47.94
2017-01-05T15:08:10.434Z,47.97
2017-01-05T15:10:22.860Z,48.17
2017-01-05T15:12:35.348Z,48.36
2017-01-05T15:14:47.767Z,48.4
2017-01-05T15:17:00.316Z,48.4
2017-01-05T15:19:12.675Z,48.44
2017-01-05T15:21:25.079Z,48.48
2017-01-05T15:23:37.413Z,48.56
2017-01-05T15:25:49.798Z,48.61
2017-01-05T15:28:02.124Z,48.67
2017-01-05T15:30:14.361Z,48.71
2017-01-05T15:32:26.733Z,48.75
2017-01-05T15:34:38.909Z,48.79
2017-01-05T15:36:46.339Z,48.83
2017-01-05T15:38:58.592Z,48.83
2017-01-05T15:41:11.105Z,48.84
2017-01-05T15:43:23.496Z,48.89
2017-01-05T15:45:35.830Z,48.94
2017-01-05T15:47:48.292Z,49.01
2017-01-05T15:50:00.673Z,49.07
2017-01-05T15:52:13.058Z,49.09
2017-01-05T15:54:25.363Z,49.1
2017-01-05T15:56:38.169Z,49.13
2017-01-05T15:58:50.486Z,49.15
2017-01-05T16:01:03.075Z,49.17
2017-01-05T16:03:15.649Z,49.19
2017-01-05T16:05:27.900Z,49.2
2017-01-05T16:07:43.199Z,49.2
2017-01-05T16:09:55.709Z,49.19
2017-01-05T16:12:16.216Z,49.18
2017-01-05T16:14:33.934Z,49.18
2017-01-05T16:16:47.037Z,49.15
2017-01-05T16:18:59.491Z,49.08
2017-01-05T16:21:11.916Z,49.02
2017-01-05T16:23:24.278Z,49
2017-01-05T16:25:37.746Z,48.97
2017-01-05T16:27:50.022Z,48.95
2017-01-05T16:29:57.423Z,48.94
2017-01-05T16:32:09.767Z,48.95
2017-01-05T16:34:22.022Z,48.95
2017-01-05T16:36:34.402Z,48.92
2017-01-05T16:38:46.750Z,48.87
2017-01-05T16:40:59.168Z,48.84
2017-01-05T16:43:13.063Z,48.84
2017-01-05T16:45:25.421Z,48.83
2017-01-05T16:47:32.717Z,48.83
2017-01-05T16:49:40.202Z,48.81
2017-01-05T16:51:52.539Z,48.74
2017-01-05T16:54:04.990Z,48.71
2017-01-05T16:56:17.519Z,48.7
2017-01-05T16:58:29.908Z,48.68
2017-01-05T17:00:42.196Z,48.63
2017-01-05T17:02:54.471Z,48.59
2017-01-05T17:05:01.856Z,48.56
2017-01-05T17:07:14.231Z,48.54
2017-01-05T17:09:26.604Z,48.5
2017-01-05T17:11:38.912Z,48.49
2017-01-05T17:13:51.646Z,48.5
2017-01-05T17:16:04.255Z,48.51
2017-01-05T17:18:16.541Z,48.51
2017-01-05T17:20:28.958Z,48.55
2017-01-05T17:22:41.163Z,48.57
2017-01-05T17:24:53.447Z,48.59
2017-01-05T17:27:05.882Z,48.58
2017-01-05T17:29:18.334Z,48.55
2017-01-05T17:31:30.819Z,48.54
2017-01-05T17:33:43.184Z,48.53
2017-01-05T17:35:55.445Z,48.49
2017-01-05T17:38:02.849Z,48.44
2017-01-05T17:40:15.205Z,48.48
2017-01-05T17:42:27.749Z,48.49
2017-01-05T17:44:40.003Z,48.48
2017-01-05T17:46:52.325Z,48.46
2017-01-05T17:49:04.856Z,48.46
2017-01-05T17:51:18.536Z,48.5
2017-01-05T17:53:31.015Z,48.53
2017-01-05T17:55:43.520Z,48.56
2017-01-05T17:57:59.453Z,48.61
2017-01-05T18:00:11.999Z,48.64
2017-01-05T18:02:14.411Z,48.62
2017-01-05T18:04:21.989Z,48.56
2017-01-05T18:06:35.550Z,48.54
2017-01-05T18:08:48.056Z,48.55
2017-01-05T18:11:01.227Z,48.58
2017-01-05T18:13:13.683Z,48.59
2017-01-05T18:15:29.639Z,48.61
2017-01-05T18:17:44.956Z,48.61
2017-01-05T18:19:57.468Z,48.68
2017-01-05T18:22:09.773Z,48.62
2017-01-05T18:24:22.005Z,48.56
2017-01-05T18:26:29.529Z,48.54
2017-01-05T18:28:41.879Z,48.56
2017-01-05T18:30:49.274Z,48.54
2017-01-05T18:33:01.638Z,48.53
2017-01-05T18:35:14.048Z,48.56
2017-01-05T18:37:26.456Z,48.56
2017-01-05T18:39:38.956Z,48.58
2017-01-05T18:41:51.547Z,48.57
2017-01-05T18:44:04.455Z,48.54
2017-01-05T18:46:19.464Z,48.58
2017-01-05T18:48:32.415Z,48.64
2017-01-05T18:50:42.770Z,48.69
2017-01-05T18:52:58.134Z,48.71
2017-01-05T18:55:17.670Z,48.71
2017-01-05T18:57:30.276Z,48.68
2017-01-05T18:59:32.674Z,48.68
2017-01-05T19:01:46.496Z,48.67
2017-01-05T19:03:59.291Z,48.67
2017-01-05T19:06:18.143Z,48.68
2017-01-05T19:08:36.679Z,48.66
2017-01-05T19:10:44.741Z,48.65
2017-01-05T19:12:59.163Z,48.63
2017-01-05T19:15:11.971Z,48.62
2017-01-05T19:17:28.820Z,48.61
2017-01-05T19:19:36.309Z,48.59
2017-01-05T19:21:53.989Z,48.57
2017-01-05T19:24:06.352Z,48.56
2017-01-05T19:26:18.880Z,48.55
2017-01-05T19:28:31.544Z,48.52
2017-01-05T19:30:45.626Z,48.52
2017-01-05T19:32:58.096Z,48.52
2017-01-05T19:35:10.818Z,48.53
2017-01-05T19:37:18.271Z,48.56
2017-01-05T19:39:30.645Z,48.55
2017-01-05T19:41:45.237Z,48.56
2017-01-05T19:43:57.704Z,48.56
2017-01-05T19:46:11.998Z,48.59
2017-01-05T19:48:26.331Z,48.63
2017-01-05T19:50:35.494Z,48.68
2017-01-05T19:52:48.418Z,48.73
2017-01-05T19:55:04.425Z,48.78
2017-01-05T19:57:19.472Z,48.79
2017-01-05T19:59:36.511Z,48.81
2017-01-05T20:01:50.790Z,48.84
2017-01-05T20:04:04.306Z,48.88
2017-01-05T20:06:22.130Z,48.95
2017-01-05T20:08:38.342Z,49.01
2017-01-05T20:10:53.189Z,49.08
2017-01-05T20:13:07.796Z,49.11
2017-01-05T20:15:20.568Z,49.1
2017-01-05T20:17:35.393Z,49.09
2017-01-05T20:19:48.976Z,49.07
2017-01-05T20:22:04.655Z,49.05
2017-01-05T20:24:18.458Z,49.05
2017-01-05T20:26:33.048Z,49.02
2017-01-05T20:28:46.603Z,48.98
2017-01-05T20:30:55.267Z,48.95
2017-01-05T20:33:09.563Z,48.91
2017-01-05T20:35:24.260Z,48.89
2017-01-05T20:37:32.780Z,48.85
2017-01-05T20:39:47.287Z,48.8
2017-01-05T20:42:00.567Z,48.76
2017-01-05T20:44:16.724Z,48.72
2017-01-05T20:46:34.862Z,48.68
2017-01-05T20:48:53.732Z,48.63
2017-01-05T20:51:08.141Z,48.59
2017-01-05T20:53:24.128Z,48.54
2017-01-05T20:55:38.873Z,48.52
2017-01-05T20:57:52.597Z,48.5
2017-01-05T21:00:09.075Z,48.51
2017-01-05T21:02:23.194Z,48.56
2017-01-05T21:04:36.304Z,48.6
2017-01-05T21:06:53.751Z,48.66
2017-01-05T21:09:06.598Z,48.72
2017-01-05T21:11:19.902Z,48.77
2017-01-05T21:13:32.762Z,48.8
2017-01-05T21:15:46.741Z,48.82
2017-01-05T21:18:04.255Z,48.8
2017-01-05T21:20:40.808Z,48.8
2017-01-05T21:23:29.479Z,48.81
2017-01-05T21:26:16.573Z,48.78
2017-01-05T21:29:03.525Z,48.76
2017-01-05T21:31:52.353Z,48.76
2017-01-05T21:34:38.632Z,48.8
2017-01-05T21:37:31.726Z,48.82
2017-01-05T21:40:20.136Z,48.84
2017-01-05T21:42:43.617Z,48.85
2017-01-05T21:45:03.727Z,48.84
2017-01-05T21:47:26.804Z,48.79
2017-01-05T21:50:09.212Z,48.69
2017-01-05T21:52:54.872Z,48.62
2017-01-05T21:55:43.315Z,48.54
2017-01-05T21:58:26.041Z,48.46
2017-01-05T22:01:07.212Z,48.37
2017-01-05T22:03:58.229Z,48.34
2017-01-05T22:06:50.549Z,48.31
2017-01-05T22:09:40.452Z,48.3
2017-01-05T22:12:29.856Z,48.25
2017-01-05T22:15:20.376Z,48.22
2017-01-05T22:18:08.855Z,48.21
2017-01-05T22:21:00.466Z,48.23
2017-01-05T22:23:43.898Z,48.24
2017-01-05T22:26:31.376Z,48.24
2017-01-05T22:29:11.461Z,48.21
2017-01-05T22:31:58.459Z,48.2
2017-01-05T22:34:47.967Z,48.2
2017-01-05T22:37:26.800Z,48.22
2017-01-05T22:40:10.564Z,48.23
2017-01-05T22:42:39.942Z,48.23
2017-01-05T22:45:10.101Z,48.22
2017-01-05T22:47:45.467Z,48.23
2017-01-05T22:50:15.347Z,48.23
2017-01-05T22:52:51.594Z,48.24
2017-01-05T22:55:15.069Z,48.24
2017-01-05T22:57:27.556Z,48.26
2017-01-05T22:59:40.316Z,48.27
2017-01-05T23:02:12.922Z,48.25
2017-01-05T23:04:39.148Z,48.27
2017-01-05T23:07:03.063Z,48.29
2017-01-05T23:09:20.492Z,48.27
2017-01-05T23:11:37.102Z,48.26
2017-01-05T23:14:26.942Z,48.25
2017-01-05T23:17:16.254Z,48.24
2017-01-05T23:19:45.661Z,48.25
2017-01-05T23:22:07.851Z,48.23
2017-01-05T23:24:31.737Z,48.21
2017-01-05T23:26:57.386Z,48.26
2017-01-05T23:29:15.668Z,48.3
2017-01-05T23:31:38.447Z,48.32
2017-01-05T23:34:10.199Z,48.32
2017-01-05T23:36:26.286Z,48.3
2017-01-05T23:38:55.098Z,48.3
2017-01-05T23:41:16.822Z,48.29
2017-01-05T23:43:46.061Z,48.27
2017-01-05T23:46:11.044Z,48.22
2017-01-05T23:48:42.019Z,48.22
2017-01-05T23:51:17.996Z,48.23
2017-01-05T23:53:47.681Z,48.24
2017-01-05T23:56:04.601Z,48.23
2017-01-05T23:58:12.020Z,48.29
